createdAt,value
2022-09-24T00:01:20.512Z,12.30
2022-09-24T00:03:54.636Z,12.21
2022-09-24T00:06:21.159Z,12.14
2022-09-24T00:08:48.678Z,12.17
2022-09-24T00:11:15.056Z,12.06
2022-09-24T00:13:41.468Z,12.07
2022-09-24T00:16:08.602Z,12.07
2022-09-24T00:18:34.963Z,12.02
2022-09-24T00:21:01.286Z,12.02
2022-09-24T00:23:27.624Z,12.06
2022-09-24T00:26:12.727Z,12.09
2022-09-24T00:28:39.096Z,12.02
2022-09-24T00:31:06.943Z,12.06
2022-09-24T00:33:34.376Z,12.08
2022-09-24T00:36:04.584Z,12.24
2022-09-24T00:38:31.877Z,12.24
2022-09-24T00:40:59.282Z,12.28
2022-09-24T00:43:34.105Z,12.20
2022-09-24T00:46:07.325Z,12.17
2022-09-24T00:48:34.207Z,12.20
2022-09-24T00:51:01.460Z,12.18
2022-09-24T00:53:31.901Z,12.19
2022-09-24T00:55:58.220Z,12.16
2022-09-24T00:58:24.555Z,12.17
2022-09-24T01:00:52.074Z,12.28
2022-09-24T01:03:22.962Z,12.39
2022-09-24T01:05:49.292Z,12.41
2022-09-24T01:08:16.159Z,12.42
2022-09-24T01:11:01.737Z,12.30
2022-09-24T01:13:31.068Z,12.21
2022-09-24T01:15:59.802Z,12.21
2022-09-24T01:18:30.491Z,12.28
2022-09-24T01:21:25.378Z,12.36
2022-09-24T01:24:01.683Z,12.36
2022-09-24T01:26:38.406Z,12.39
2022-09-24T01:29:21.587Z,12.53
2022-09-24T01:31:50.268Z,12.46
2022-09-24T01:34:19.386Z,12.51
2022-09-24T01:36:45.706Z,12.52
2022-09-24T01:39:14.094Z,12.68
2022-09-24T01:41:42.258Z,12.61
2022-09-24T01:44:08.631Z,12.61
2022-09-24T01:46:38.027Z,12.73
2022-09-24T01:49:06.192Z,12.65
2022-09-24T01:51:38.110Z,12.55
2022-09-24T01:54:09.739Z,12.58
2022-09-24T01:56:36.176Z,12.53
2022-09-24T01:59:07.081Z,12.46
2022-09-24T02:01:45.225Z,12.33
2022-09-24T02:04:16.675Z,12.34
2022-09-24T02:06:44.687Z,12.26
2022-09-24T02:09:29.959Z,12.05
2022-09-24T02:11:56.795Z,11.77
2022-09-24T02:14:23.548Z,11.56
2022-09-24T02:16:50.598Z,11.71
2022-09-24T02:19:17.672Z,11.93
2022-09-24T02:21:44.004Z,11.97
2022-09-24T02:24:23.932Z,12.05
2022-09-24T02:26:50.796Z,12.08
2022-09-24T02:29:18.480Z,12.04
2022-09-24T02:31:46.220Z,11.98
2022-09-24T02:34:22.378Z,11.66
2022-09-24T02:36:51.505Z,11.70
2022-09-24T02:39:18.071Z,11.76
2022-09-24T02:41:47.742Z,11.81
2022-09-24T02:44:17.014Z,11.85
2022-09-24T02:46:43.848Z,11.66
2022-09-24T02:49:10.310Z,11.49
2022-09-24T02:51:36.640Z,11.35
2022-09-24T02:54:03.583Z,11.54
2022-09-24T02:56:29.915Z,11.31
2022-09-24T02:58:56.287Z,11.18
2022-09-24T03:01:23.446Z,11.14
2022-09-24T03:03:49.899Z,11.15
2022-09-24T03:06:16.229Z,11.19
2022-09-24T03:08:42.644Z,11.27
2022-09-24T03:11:12.181Z,11.42
2022-09-24T03:13:41.490Z,11.58
2022-09-24T03:16:07.860Z,11.75
2022-09-24T03:18:34.487Z,11.69
2022-09-24T03:21:04.835Z,11.51
2022-09-24T03:23:31.188Z,11.62
2022-09-24T03:25:58.844Z,11.65
2022-09-24T03:28:25.492Z,11.54
2022-09-24T03:31:01.122Z,11.23
2022-09-24T03:33:33.548Z,11.06
2022-09-24T03:36:00.934Z,11.11
2022-09-24T03:38:27.506Z,11.19
2022-09-24T03:40:53.943Z,11.22
2022-09-24T03:43:20.345Z,11.07
2022-09-24T03:45:46.653Z,11.10
2022-09-24T03:48:12.989Z,11.25
2022-09-24T03:50:39.993Z,11.29
2022-09-24T03:53:06.310Z,11.34
2022-09-24T03:55:32.638Z,11.39
2022-09-24T03:57:58.974Z,11.36
2022-09-24T04:00:25.286Z,11.44
2022-09-24T04:02:51.775Z,11.42
2022-09-24T04:05:18.211Z,11.43
2022-09-24T04:07:44.636Z,11.35
2022-09-24T04:10:11.203Z,11.32
2022-09-24T04:12:37.546Z,11.22
2022-09-24T04:15:04.039Z,11.19
2022-09-24T04:17:33.275Z,11.27
2022-09-24T04:19:59.676Z,11.41
2022-09-24T04:22:26.316Z,11.40
2022-09-24T04:24:52.698Z,11.41
2022-09-24T04:27:19.061Z,11.30
2022-09-24T04:29:45.788Z,11.30
2022-09-24T04:32:12.143Z,11.13
2022-09-24T04:34:38.475Z,11.04
2022-09-24T04:37:05.839Z,11.31
2022-09-24T04:39:32.160Z,11.61
2022-09-24T04:41:58.498Z,11.69
2022-09-24T04:44:24.860Z,11.60
2022-09-24T04:46:51.296Z,11.75
2022-09-24T04:49:17.665Z,11.71
2022-09-24T04:51:44.040Z,11.44
2022-09-24T04:54:10.363Z,11.46
2022-09-24T04:56:36.698Z,11.30
2022-09-24T04:59:04.845Z,11.21
2022-09-24T05:01:31.347Z,11.09
2022-09-24T05:03:57.682Z,11.06
2022-09-24T05:06:24.004Z,11.02
2022-09-24T05:08:50.332Z,11.02
2022-09-24T05:11:16.678Z,11.07
2022-09-24T05:13:43.009Z,11.06
2022-09-24T05:16:09.394Z,10.84
2022-09-24T05:18:37.047Z,10.84
2022-09-24T05:21:03.383Z,10.76
2022-09-24T05:23:29.883Z,10.86
2022-09-24T05:26:14.908Z,10.92
2022-09-24T05:28:42.821Z,11.01
2022-09-24T05:31:10.682Z,10.92
2022-09-24T05:33:37.578Z,11.06
2022-09-24T05:36:04.608Z,11.13
2022-09-24T05:38:32.857Z,11.14
2022-09-24T05:40:59.244Z,11.45
2022-09-24T05:43:27.729Z,11.57
2022-09-24T05:45:54.588Z,11.62
2022-09-24T05:48:21.333Z,11.62
2022-09-24T05:50:47.781Z,11.54
2022-09-24T05:53:14.140Z,11.53
2022-09-24T05:55:40.468Z,11.57
2022-09-24T05:58:07.313Z,11.56
2022-09-24T06:00:33.801Z,11.48
2022-09-24T06:03:05.636Z,11.53
2022-09-24T06:05:32.021Z,11.66
2022-09-24T06:07:58.586Z,11.70
2022-09-24T06:10:26.180Z,11.68
2022-09-24T06:12:53.329Z,11.61
2022-09-24T06:15:20.743Z,11.63
2022-09-24T06:17:47.208Z,11.63
2022-09-24T06:20:13.863Z,11.59
2022-09-24T06:22:40.318Z,11.63
2022-09-24T06:25:07.216Z,11.68
2022-09-24T06:27:33.555Z,11.75
2022-09-24T06:29:59.862Z,11.90
2022-09-24T06:32:26.204Z,11.91
2022-09-24T06:34:58.292Z,11.90
2022-09-24T06:37:25.463Z,11.95
2022-09-24T06:39:51.783Z,11.98
2022-09-24T06:42:18.131Z,11.96
2022-09-24T06:44:44.495Z,12.06
2022-09-24T06:47:12.573Z,12.08
2022-09-24T06:49:38.888Z,12.13
2022-09-24T06:52:08.307Z,12.19
2022-09-24T06:54:34.924Z,12.19
2022-09-24T06:57:02.758Z,12.27
2022-09-24T06:59:30.100Z,12.34
2022-09-24T07:01:56.504Z,12.45
2022-09-24T07:04:22.915Z,12.47
2022-09-24T07:07:08.051Z,12.46
2022-09-24T07:09:36.217Z,12.46
2022-09-24T07:12:05.335Z,12.38
2022-09-24T07:14:31.686Z,12.48
2022-09-24T07:16:58.006Z,12.70
2022-09-24T07:19:24.370Z,12.84
2022-09-24T07:21:50.714Z,12.97
2022-09-24T07:24:17.043Z,13.00
2022-09-24T07:26:43.369Z,12.88
2022-09-24T07:29:09.802Z,12.99
2022-09-24T07:31:36.608Z,12.91
2022-09-24T07:34:03.039Z,12.78
2022-09-24T07:36:31.322Z,12.55
2022-09-24T07:38:58.008Z,12.41
2022-09-24T07:41:24.337Z,12.40
2022-09-24T07:43:50.725Z,12.36
2022-09-24T07:46:17.093Z,12.25
2022-09-24T07:48:43.496Z,12.26
2022-09-24T07:51:10.036Z,12.36
2022-09-24T07:53:36.365Z,12.49
2022-09-24T07:56:02.744Z,12.36
2022-09-24T07:58:29.073Z,12.45
2022-09-24T08:00:57.629Z,12.29
2022-09-24T08:03:24.002Z,12.43
2022-09-24T08:05:50.374Z,12.50
2022-09-24T08:08:16.733Z,12.35
2022-09-24T08:10:43.463Z,12.32
2022-09-24T08:13:09.818Z,12.41
2022-09-24T08:15:36.326Z,12.47
2022-09-24T08:18:03.453Z,12.46
2022-09-24T08:20:30.076Z,12.42
2022-09-24T08:23:00.715Z,12.57
2022-09-24T08:25:27.027Z,12.32
2022-09-24T08:27:53.368Z,12.26
2022-09-24T08:30:21.345Z,12.25
2022-09-24T08:32:50.524Z,12.25
2022-09-24T08:35:16.870Z,12.13
2022-09-24T08:37:43.287Z,12.13
2022-09-24T08:40:17.163Z,12.18
2022-09-24T08:42:52.602Z,12.27
2022-09-24T08:45:37.838Z,12.34
2022-09-24T08:48:13.763Z,12.35
2022-09-24T08:50:42.009Z,12.40
2022-09-24T08:53:14.545Z,12.41
2022-09-24T08:55:45.961Z,12.52
2022-09-24T08:58:18.914Z,12.70
2022-09-24T09:01:04.088Z,12.82
2022-09-24T09:03:33.328Z,12.87
2022-09-24T09:06:01.877Z,12.76
2022-09-24T09:11:24.164Z,12.83
2022-09-24T09:14:01.024Z,13.01
2022-09-24T09:16:28.155Z,13.17
2022-09-24T09:18:55.995Z,13.24
2022-09-24T09:21:26.355Z,13.44
2022-09-24T09:23:52.781Z,13.44
2022-09-24T09:26:20.180Z,13.53
2022-09-24T09:28:46.649Z,13.72
2022-09-24T09:31:13.046Z,13.74
2022-09-24T09:33:48.695Z,13.73
2022-09-24T09:36:21.196Z,13.90
2022-09-24T09:38:47.511Z,14.06
2022-09-24T09:41:16.995Z,14.20
2022-09-24T09:43:43.469Z,14.35
2022-09-24T09:46:18.520Z,14.43
2022-09-24T09:48:45.651Z,14.42
2022-09-24T09:51:18.719Z,14.43
2022-09-24T09:53:57.503Z,14.43
2022-09-24T09:56:36.544Z,14.34
2022-09-24T09:59:03.072Z,14.41
2022-09-24T10:01:33.154Z,14.30
2022-09-24T10:04:03.138Z,14.39
2022-09-24T10:06:29.962Z,14.36
2022-09-24T10:09:06.331Z,14.23
2022-09-24T10:11:32.646Z,14.34
2022-09-24T10:14:02.891Z,14.15
2022-09-24T10:16:29.295Z,14.30
2022-09-24T10:18:55.663Z,14.49
2022-09-24T10:21:28.828Z,14.58
2022-09-24T10:23:57.298Z,14.78
2022-09-24T10:26:32.960Z,15.05
2022-09-24T10:29:18.161Z,15.05
2022-09-24T10:31:45.664Z,15.28
2022-09-24T10:34:20.062Z,15.39
2022-09-24T10:36:50.403Z,15.20
2022-09-24T10:39:16.738Z,15.23
2022-09-24T10:42:01.244Z,15.12
2022-09-24T10:44:30.073Z,15.01
2022-09-24T10:46:59.221Z,15.02
2022-09-24T10:49:26.725Z,15.12
2022-09-24T10:51:59.077Z,15.07
2022-09-24T10:54:28.470Z,14.90
2022-09-24T10:56:55.671Z,14.99
2022-09-24T10:59:31.395Z,15.02
2022-09-24T11:02:13.111Z,14.89
2022-09-24T11:04:58.502Z,14.88
2022-09-24T11:07:24.786Z,14.89
2022-09-24T11:10:10.316Z,15.06
2022-09-24T11:12:49.079Z,15.05
2022-09-24T11:15:23.728Z,14.83
2022-09-24T11:18:02.849Z,14.69
2022-09-24T11:20:30.175Z,14.86
2022-09-24T11:23:01.415Z,14.94
2022-09-24T11:25:30.566Z,15.01
2022-09-24T11:28:06.207Z,15.01
2022-09-24T11:30:32.516Z,14.92
2022-09-24T11:33:08.242Z,14.76
2022-09-24T11:35:47.431Z,14.72
2022-09-24T11:38:21.418Z,14.66
2022-09-24T11:40:52.955Z,14.82
2022-09-24T11:43:19.932Z,14.77
2022-09-24T11:45:46.920Z,14.84
2022-09-24T11:48:14.312Z,14.94
2022-09-24T11:50:47.683Z,14.88
2022-09-24T11:53:21.904Z,14.99
2022-09-24T11:56:14.525Z,14.83
2022-09-24T11:58:51.536Z,14.71
2022-09-24T12:01:18.679Z,14.61
2022-09-24T12:03:47.199Z,14.59
2022-09-24T12:06:14.811Z,14.62
2022-09-24T12:08:46.866Z,14.68
2022-09-24T12:11:13.662Z,14.67
2022-09-24T12:13:41.793Z,14.80
2022-09-24T12:16:11.158Z,14.93
2022-09-24T12:18:43.112Z,15.07
2022-09-24T12:21:10.459Z,15.19
2022-09-24T12:23:39.543Z,15.20
2022-09-24T12:26:05.874Z,15.11
2022-09-24T12:28:58.377Z,15.27
2022-09-24T12:32:09.982Z,15.67
2022-09-24T12:34:36.875Z,16.06
2022-09-24T12:37:04.334Z,16.26
2022-09-24T12:39:32.799Z,16.59
2022-09-24T12:42:03.346Z,16.79
2022-09-24T12:44:43.495Z,16.58
2022-09-24T12:47:18.091Z,16.27
2022-09-24T12:49:47.715Z,16.43
2022-09-24T12:52:18.209Z,16.29
2022-09-24T12:54:44.589Z,16.42
2022-09-24T12:57:21.428Z,16.30
2022-09-24T12:59:51.581Z,16.50
2022-09-24T13:02:22.132Z,16.40
2022-09-24T13:05:03.376Z,16.46
2022-09-24T13:07:42.178Z,16.35
2022-09-24T13:10:12.139Z,16.28
2022-09-24T13:12:38.496Z,16.15
2022-09-24T13:15:06.632Z,16.20
2022-09-24T13:17:33.579Z,16.25
2022-09-24T13:20:00.855Z,16.16
2022-09-24T13:22:28.953Z,16.17
2022-09-24T13:25:09.368Z,16.15
2022-09-24T13:27:42.114Z,16.21
2022-09-24T13:30:08.437Z,16.05
2022-09-24T13:32:37.265Z,16.09
2022-09-24T13:35:06.469Z,16.01
2022-09-24T13:37:38.361Z,15.69
2022-09-24T13:40:15.358Z,15.77
2022-09-24T13:42:50.256Z,16.01
2022-09-24T13:45:23.206Z,15.91
2022-09-24T13:48:05.243Z,15.85
2022-09-24T13:50:35.848Z,15.74
2022-09-24T13:53:13.805Z,15.79
2022-09-24T13:55:44.333Z,15.86
2022-09-24T13:58:26.356Z,15.82
2022-09-24T14:00:53.553Z,15.85
2022-09-24T14:03:30.214Z,15.82
2022-09-24T14:05:57.911Z,15.31
2022-09-24T14:08:24.502Z,15.23
2022-09-24T14:10:51.283Z,15.45
2022-09-24T14:13:24.391Z,15.31
2022-09-24T14:15:57.671Z,15.52
2022-09-24T14:18:24.813Z,15.48
2022-09-24T14:20:55.847Z,15.57
2022-09-24T14:23:35.142Z,15.58
2022-09-24T14:26:02.568Z,15.61
2022-09-24T14:28:33.321Z,15.62
2022-09-24T14:30:59.810Z,15.51
2022-09-24T14:33:27.226Z,15.50
2022-09-24T14:35:54.478Z,15.43
2022-09-24T14:38:22.718Z,15.41
2022-09-24T14:40:58.700Z,15.20
2022-09-24T14:43:32.077Z,15.16
2022-09-24T14:46:02.270Z,15.20
2022-09-24T14:48:29.419Z,15.18
2022-09-24T14:50:55.758Z,15.15
2022-09-24T14:53:29.787Z,15.01
2022-09-24T14:55:56.552Z,14.92
2022-09-24T14:58:22.972Z,15.03
2022-09-24T15:00:55.087Z,15.07
2022-09-24T15:03:25.523Z,15.08
2022-09-24T15:05:52.594Z,15.16
2022-09-24T15:08:22.354Z,15.02
2022-09-24T15:10:58.818Z,14.99
2022-09-24T15:13:26.279Z,15.12
2022-09-24T15:16:03.188Z,15.06
2022-09-24T15:18:29.694Z,14.81
2022-09-24T15:21:00.160Z,14.64
2022-09-24T15:23:26.609Z,14.66
2022-09-24T15:25:53.055Z,14.75
2022-09-24T15:28:20.952Z,14.76
2022-09-24T15:30:47.406Z,14.70
2022-09-24T15:33:13.892Z,14.75
2022-09-24T15:35:43.574Z,14.42
2022-09-24T15:38:13.800Z,14.40
2022-09-24T15:40:40.249Z,14.15
2022-09-24T15:43:20.513Z,14.12
2022-09-24T15:45:46.867Z,14.15
2022-09-24T15:48:13.262Z,14.33
2022-09-24T15:50:39.910Z,14.26
2022-09-24T15:53:06.535Z,14.28
2022-09-24T15:55:36.197Z,14.26
2022-09-24T15:58:02.572Z,14.07
2022-09-24T16:00:28.911Z,14.06
2022-09-24T16:02:55.771Z,14.02
2022-09-24T16:05:22.172Z,13.90
2022-09-24T16:07:49.094Z,13.98
2022-09-24T16:10:15.607Z,13.95
2022-09-24T16:12:42.126Z,14.11
2022-09-24T16:15:08.935Z,14.02
2022-09-24T16:17:35.353Z,13.90
2022-09-24T16:20:02.004Z,13.83
2022-09-24T16:22:28.568Z,13.83
2022-09-24T16:24:55.079Z,13.89
2022-09-24T16:27:21.457Z,13.91
2022-09-24T16:29:47.827Z,13.88
2022-09-24T16:32:14.360Z,13.65
2022-09-24T16:34:41.026Z,13.79
2022-09-24T16:37:07.633Z,13.81
2022-09-24T16:39:34.092Z,13.74
2022-09-24T16:42:01.145Z,13.76
2022-09-24T16:44:27.499Z,13.76
2022-09-24T16:46:53.888Z,13.68
2022-09-24T16:49:22.069Z,13.63
2022-09-24T16:51:48.567Z,13.43
2022-09-24T16:54:14.992Z,13.42
2022-09-24T16:56:41.703Z,13.52
2022-09-24T16:59:09.239Z,13.39
2022-09-24T17:01:35.769Z,13.38
2022-09-24T17:04:02.201Z,13.25
2022-09-24T17:06:29.628Z,13.24
2022-09-24T17:09:14.895Z,13.03
2022-09-24T17:11:41.872Z,13.12
2022-09-24T17:14:08.654Z,13.13
2022-09-24T17:16:35.024Z,13.14
2022-09-24T17:19:01.569Z,13.16
2022-09-24T17:21:27.979Z,13.23
2022-09-24T17:23:54.362Z,13.19
2022-09-24T17:26:21.695Z,13.13
2022-09-24T17:28:48.641Z,13.21
2022-09-24T17:31:15.756Z,13.11
2022-09-24T17:33:43.849Z,13.09
2022-09-24T17:36:11.068Z,13.08
2022-09-24T17:38:37.457Z,12.95
2022-09-24T17:41:07.526Z,12.81
2022-09-24T17:43:34.514Z,12.63
2022-09-24T17:46:03.336Z,12.66
2022-09-24T17:48:30.806Z,12.51
2022-09-24T17:50:57.489Z,12.40
2022-09-24T17:53:24.161Z,12.33
2022-09-24T17:55:50.788Z,12.09
2022-09-24T17:58:17.425Z,12.21
2022-09-24T18:00:44.199Z,12.26
2022-09-24T18:03:10.687Z,12.18
2022-09-24T18:05:37.829Z,12.20
2022-09-24T18:08:04.383Z,12.27
2022-09-24T18:10:30.739Z,12.28
2022-09-24T18:12:59.089Z,12.35
2022-09-24T18:15:25.910Z,12.29
2022-09-24T18:17:53.005Z,12.28
2022-09-24T18:20:20.035Z,12.24
2022-09-24T18:22:46.407Z,12.18
2022-09-24T18:25:13.620Z,12.23
2022-09-24T18:27:40.398Z,12.07
2022-09-24T18:30:07.646Z,12.12
2022-09-24T18:32:34.715Z,11.94
2022-09-24T18:35:01.486Z,11.82
2022-09-24T18:37:27.833Z,11.69
2022-09-24T18:39:54.220Z,11.60
2022-09-24T18:42:20.566Z,11.63
2022-09-24T18:44:47.117Z,11.65
2022-09-24T18:47:14.727Z,11.58
2022-09-24T18:49:41.619Z,11.39
2022-09-24T18:52:08.045Z,11.36
2022-09-24T18:54:34.510Z,11.34
2022-09-24T18:57:00.861Z,11.22
2022-09-24T18:59:29.089Z,11.18
2022-09-24T19:01:55.530Z,11.19
2022-09-24T19:04:23.632Z,11.11
2022-09-24T19:06:50.681Z,11.11
2022-09-24T19:09:17.439Z,11.13
2022-09-24T19:11:45.537Z,11.10
2022-09-24T19:14:18.071Z,11.15
2022-09-24T19:16:44.795Z,11.21
2022-09-24T19:19:11.437Z,11.24
2022-09-24T19:21:37.997Z,11.28
2022-09-24T19:24:05.229Z,11.45
2022-09-24T19:26:32.424Z,11.46
2022-09-24T19:28:58.932Z,11.57
2022-09-24T19:31:25.318Z,11.57
2022-09-24T19:33:51.996Z,11.59
2022-09-24T19:36:18.389Z,11.72
2022-09-24T19:38:44.967Z,11.70
2022-09-24T19:41:13.313Z,11.63
2022-09-24T19:43:40.025Z,11.63
2022-09-24T19:46:07.206Z,11.55
2022-09-24T19:48:36.370Z,11.55
2022-09-24T19:51:03.758Z,11.51
2022-09-24T19:53:31.476Z,11.64
2022-09-24T19:55:58.368Z,11.59
2022-09-24T19:58:25.318Z,11.79
2022-09-24T20:00:52.222Z,11.75
2022-09-24T20:03:19.214Z,11.72
2022-09-24T20:05:45.587Z,11.81
2022-09-24T20:08:12.542Z,11.69
2022-09-24T20:10:39.252Z,11.78
2022-09-24T20:13:05.809Z,11.69
2022-09-24T20:15:32.226Z,11.68
2022-09-24T20:17:58.657Z,11.56
2022-09-24T20:20:25.252Z,11.57
2022-09-24T20:22:51.689Z,11.70
2022-09-24T20:25:18.056Z,11.66
2022-09-24T20:27:55.317Z,11.70
2022-09-24T20:30:24.632Z,11.70
2022-09-24T20:32:51.328Z,11.79
2022-09-24T20:35:17.672Z,11.72
2022-09-24T20:37:44.801Z,11.75
2022-09-24T20:40:11.281Z,11.76
2022-09-24T20:42:38.336Z,11.74
2022-09-24T20:45:08.902Z,11.83
2022-09-24T20:47:38.953Z,11.86
2022-09-24T20:50:05.683Z,11.99
2022-09-24T20:52:32.606Z,11.95
2022-09-24T20:54:58.968Z,12.04
2022-09-24T20:57:25.963Z,12.02
2022-09-24T20:59:52.442Z,12.07
2022-09-24T21:02:18.883Z,12.06
2022-09-24T21:04:45.317Z,12.10
2022-09-24T21:07:11.669Z,12.12
2022-09-24T21:09:38.012Z,12.04
2022-09-24T21:12:04.459Z,12.07
2022-09-24T21:14:30.802Z,12.09
2022-09-24T21:16:57.157Z,12.11
2022-09-24T21:19:24.326Z,12.06
2022-09-24T21:21:51.228Z,12.13
2022-09-24T21:24:17.868Z,12.09
2022-09-24T21:26:45.276Z,12.09
2022-09-24T21:29:16.702Z,11.99
2022-09-24T21:31:44.118Z,12.10
2022-09-24T21:34:10.715Z,12.08
2022-09-24T21:36:43.749Z,12.04
2022-09-24T21:39:20.287Z,12.09
2022-09-24T21:41:49.800Z,12.07
2022-09-24T21:44:17.659Z,12.00
2022-09-24T21:46:45.011Z,12.04
2022-09-24T21:49:11.867Z,12.03
2022-09-24T21:51:38.435Z,12.10
2022-09-24T21:54:05.679Z,12.09
2022-09-24T21:56:32.279Z,12.06
2022-09-24T21:58:58.707Z,12.05
2022-09-24T22:01:29.164Z,12.10
2022-09-24T22:03:56.417Z,12.16
2022-09-24T22:06:23.175Z,12.13
2022-09-24T22:08:50.008Z,12.13
2022-09-24T22:11:17.917Z,12.10
2022-09-24T22:13:45.048Z,12.03
2022-09-24T22:16:11.814Z,12.05
2022-09-24T22:18:38.321Z,11.94
2022-09-24T22:21:05.740Z,11.97
2022-09-24T22:23:32.140Z,11.99
2022-09-24T22:25:58.572Z,11.95
2022-09-24T22:28:25.342Z,11.95
2022-09-24T22:30:55.822Z,11.96
2022-09-24T22:33:41.158Z,11.91
2022-09-24T22:36:07.628Z,11.91
2022-09-24T22:38:34.115Z,11.90
2022-09-24T22:41:00.861Z,11.93
2022-09-24T22:43:28.589Z,11.89
2022-09-24T22:45:58.526Z,11.87
2022-09-24T22:48:25.035Z,11.90
2022-09-24T22:50:51.431Z,11.90
2022-09-24T22:53:17.767Z,11.92
2022-09-24T22:55:44.172Z,11.96
2022-09-24T22:58:10.784Z,11.91
2022-09-24T23:00:37.158Z,11.91
2022-09-24T23:03:04.019Z,11.90
2022-09-24T23:05:33.781Z,11.94
2022-09-24T23:08:00.129Z,11.85
2022-09-24T23:10:28.800Z,11.96
2022-09-24T23:12:55.140Z,11.95
2022-09-24T23:15:21.610Z,11.95
2022-09-24T23:17:48.515Z,11.92
2022-09-24T23:20:15.035Z,11.90
2022-09-24T23:22:41.370Z,11.96
2022-09-24T23:25:07.932Z,11.89
2022-09-24T23:27:34.252Z,11.85
2022-09-24T23:30:01.520Z,11.87
2022-09-24T23:32:27.986Z,11.87
2022-09-24T23:34:54.666Z,11.83
2022-09-24T23:37:20.993Z,11.70
2022-09-24T23:39:47.661Z,11.65
2022-09-24T23:42:14.397Z,11.71
2022-09-24T23:44:41.787Z,11.71
2022-09-24T23:47:08.125Z,11.71
2022-09-24T23:49:34.506Z,11.61
2022-09-24T23:52:00.958Z,11.59
2022-09-24T23:54:28.299Z,11.64
2022-09-24T23:56:56.037Z,11.58
2022-09-24T23:59:22.498Z,11.63
